createdAt,value
2018-09-26T00:00:42.246Z,91.24
2018-09-26T00:01:42.199Z,90.28
2018-09-26T00:02:42.113Z,89.72
2018-09-26T00:03:42.049Z,90.09
2018-09-26T00:04:41.987Z,91.14
2018-09-26T00:05:41.918Z,91.24
2018-09-26T00:06:41.853Z,90.85
2018-09-26T00:07:41.789Z,90.19
2018-09-26T00:08:41.728Z,89.90
2018-09-26T00:09:41.657Z,90.76
2018-09-26T00:10:41.595Z,90.66
2018-09-26T00:11:41.526Z,90.66
2018-09-26T00:12:41.465Z,90.57
2018-09-26T00:13:41.399Z,89.58
2018-09-26T00:14:41.335Z,91.09
2018-09-26T00:15:41.265Z,90.90
2018-09-26T00:16:41.205Z,91.09
2018-09-26T00:17:41.137Z,90.90
2018-09-26T00:18:41.076Z,90.71
2018-09-26T00:19:41.007Z,90.14
2018-09-26T00:20:40.943Z,91.00
2018-09-26T00:21:40.876Z,91.00
2018-09-26T00:22:40.812Z,91.00
2018-09-26T00:23:40.747Z,91.47
2018-09-26T00:24:40.682Z,92.04
2018-09-26T00:25:40.615Z,91.94
2018-09-26T00:26:40.554Z,91.56
2018-09-26T00:27:40.496Z,91.28
2018-09-26T00:28:40.426Z,91.00
2018-09-26T00:29:40.358Z,91.00
2018-09-26T00:30:40.291Z,90.52
2018-09-26T00:31:40.225Z,91.28
2018-09-26T00:32:40.160Z,92.04
2018-09-26T00:33:40.096Z,91.19
2018-09-26T00:34:40.029Z,90.90
2018-09-26T00:35:39.973Z,90.90
2018-09-26T00:36:39.901Z,90.90
2018-09-26T00:37:39.846Z,91.47
2018-09-26T00:38:39.770Z,91.47
2018-09-26T00:39:39.704Z,91.19
2018-09-26T00:40:39.637Z,92.14
2018-09-26T00:41:39.572Z,90.90
2018-09-26T00:42:39.508Z,91.94
2018-09-26T00:43:39.441Z,91.28
2018-09-26T00:44:39.377Z,92.52
2018-09-26T00:45:39.314Z,92.52
2018-09-26T00:46:39.245Z,93.08
2018-09-26T00:47:39.180Z,94.03
2018-09-26T00:48:39.120Z,94.60
2018-09-26T00:49:39.049Z,94.70
2018-09-26T00:50:38.987Z,94.60
2018-09-26T00:51:38.922Z,94.13
2018-09-26T00:52:38.854Z,93.65
2018-09-26T00:53:38.786Z,94.23
2018-09-26T00:54:38.722Z,94.03
2018-09-26T00:55:38.660Z,94.32
2018-09-26T00:56:38.593Z,94.23
2018-09-26T00:57:38.521Z,93.56
2018-09-26T00:58:38.460Z,92.52
2018-09-26T00:59:38.396Z,92.99
2018-09-26T01:00:38.330Z,92.99
2018-09-26T01:01:38.264Z,93.27
2018-09-26T01:02:38.199Z,93.37
2018-09-26T01:03:38.132Z,93.46
2018-09-26T01:04:38.069Z,94.08
2018-09-26T01:05:38.001Z,94.51
2018-09-26T01:06:37.937Z,94.18
2018-09-26T01:07:37.881Z,94.37
2018-09-26T01:08:37.812Z,94.46
2018-09-26T01:09:37.739Z,95.03
2018-09-26T01:10:37.675Z,95.41
2018-09-26T01:11:37.608Z,95.60
2018-09-26T01:12:37.545Z,94.84
2018-09-26T01:13:37.477Z,94.18
2018-09-26T01:14:37.415Z,93.41
2018-09-26T01:15:37.356Z,94.03
2018-09-26T01:16:37.282Z,93.75
2018-09-26T01:17:37.218Z,94.03
2018-09-26T01:18:37.149Z,94.32
2018-09-26T01:19:37.086Z,94.89
2018-09-26T01:20:37.021Z,94.23
2018-09-26T01:21:36.955Z,94.32
2018-09-26T01:22:36.888Z,94.42
2018-09-26T01:23:36.822Z,94.23
2018-09-26T01:24:36.763Z,94.32
2018-09-26T01:25:36.693Z,94.89
2018-09-26T01:26:36.626Z,95.84
2018-09-26T01:27:36.561Z,95.36
2018-09-26T01:28:36.496Z,96.22
2018-09-26T01:29:36.429Z,95.93
2018-09-26T01:30:36.364Z,95.46
2018-09-26T01:31:36.298Z,95.27
2018-09-26T01:32:36.236Z,95.27
2018-09-26T01:33:36.168Z,94.42
2018-09-26T01:34:36.104Z,94.79
2018-09-26T01:35:36.036Z,95.17
2018-09-26T01:36:35.987Z,94.51
2018-09-26T01:37:35.905Z,95.07
2018-09-26T01:38:35.839Z,94.23
2018-09-26T01:39:35.774Z,95.27
2018-09-26T01:40:35.709Z,95.07
2018-09-26T01:41:35.709Z,92.71
2018-09-26T01:42:35.601Z,93.46
2018-09-26T01:43:35.514Z,93.46
2018-09-26T01:44:35.448Z,93.37
2018-09-26T01:45:35.378Z,93.84
2018-09-26T01:46:35.313Z,92.90
2018-09-26T01:47:35.246Z,92.42
2018-09-26T01:48:35.184Z,92.52
2018-09-26T01:49:35.115Z,92.14
2018-09-26T01:50:35.053Z,93.18
2018-09-26T01:51:34.988Z,92.33
2018-09-26T01:52:34.922Z,92.52
2018-09-26T01:53:34.860Z,92.14
2018-09-26T01:54:34.793Z,92.14
2018-09-26T01:55:34.724Z,92.14
2018-09-26T01:56:34.658Z,92.04
2018-09-26T01:57:34.590Z,92.99
2018-09-26T01:58:34.528Z,93.18
2018-09-26T01:59:34.461Z,92.52
2018-09-26T02:00:34.407Z,92.14
2018-09-26T02:01:34.331Z,91.56
2018-09-26T02:02:34.267Z,93.08
2018-09-26T02:03:34.200Z,93.65
2018-09-26T02:04:34.136Z,92.99
2018-09-26T02:05:34.070Z,93.18
2018-09-26T02:06:34.003Z,93.65
2018-09-26T02:07:33.941Z,93.56
2018-09-26T02:08:33.872Z,93.37
2018-09-26T02:09:33.806Z,94.32
2018-09-26T02:10:33.740Z,95.36
2018-09-26T02:11:33.677Z,95.07
2018-09-26T02:12:33.608Z,94.23
2018-09-26T02:13:33.544Z,94.42
2018-09-26T02:14:33.478Z,94.70
2018-09-26T02:15:33.411Z,96.12
2018-09-26T02:16:33.349Z,96.22
2018-09-26T02:17:33.281Z,96.41
2018-09-26T02:18:33.215Z,96.31
2018-09-26T02:19:33.147Z,97.64
2018-09-26T02:20:33.088Z,97.69
2018-09-26T02:21:33.018Z,97.69
2018-09-26T02:22:32.954Z,97.97
2018-09-26T02:23:32.898Z,98.16
2018-09-26T02:24:32.823Z,99.01
2018-09-26T02:25:32.756Z,98.82
2018-09-26T02:26:32.694Z,96.45
2018-09-26T02:27:32.626Z,96.45
2018-09-26T02:28:32.560Z,96.12
2018-09-26T02:29:32.493Z,95.27
2018-09-26T02:30:32.429Z,96.41
2018-09-26T02:31:32.362Z,96.31
2018-09-26T02:32:32.297Z,96.50
2018-09-26T02:33:32.231Z,97.50
2018-09-26T02:34:32.165Z,97.50
2018-09-26T02:35:32.103Z,96.92
2018-09-26T02:36:32.034Z,97.50
2018-09-26T02:37:31.967Z,97.21
2018-09-26T02:38:31.926Z,97.69
2018-09-26T02:39:31.844Z,97.69
2018-09-26T02:40:31.770Z,98.54
2018-09-26T02:41:31.707Z,97.88
2018-09-26T02:42:31.640Z,98.92
2018-09-26T02:43:31.573Z,99.11
2018-09-26T02:44:31.508Z,98.82
2018-09-26T02:45:31.441Z,98.82
2018-09-26T02:46:31.377Z,98.63
2018-09-26T02:47:31.312Z,98.54
2018-09-26T02:48:31.285Z,98.44
2018-09-26T02:49:31.185Z,97.12
2018-09-26T02:50:31.117Z,97.02
2018-09-26T02:51:31.056Z,97.59
2018-09-26T02:52:30.993Z,98.07
2018-09-26T02:53:30.922Z,98.92
2018-09-26T02:54:30.856Z,98.73
2018-09-26T02:55:30.789Z,98.16
2018-09-26T02:56:30.724Z,99.01
2018-09-26T02:57:30.653Z,99.99
2018-09-26T02:58:30.589Z,99.99
2018-09-26T02:59:30.521Z,98.82
2018-09-26T03:00:30.461Z,98.35
2018-09-26T03:01:30.390Z,97.21
2018-09-26T03:02:30.325Z,96.08
2018-09-26T03:03:30.258Z,96.73
2018-09-26T03:04:30.195Z,97.50
2018-09-26T03:05:30.211Z,98.35
2018-09-26T03:06:30.067Z,98.35
2018-09-26T03:07:29.995Z,99.20
2018-09-26T03:08:29.937Z,99.20
2018-09-26T03:09:29.876Z,97.50
2018-09-26T03:10:29.803Z,96.92
2018-09-26T03:11:29.734Z,95.98
2018-09-26T03:12:29.665Z,96.73
2018-09-26T03:13:29.597Z,97.40
2018-09-26T03:14:29.538Z,98.16
2018-09-26T03:15:29.469Z,97.31
2018-09-26T03:16:29.402Z,97.50
2018-09-26T03:17:29.344Z,97.88
2018-09-26T03:18:29.267Z,97.88
2018-09-26T03:19:29.205Z,98.16
2018-09-26T03:20:29.143Z,96.83
2018-09-26T03:21:29.072Z,97.21
2018-09-26T03:22:29.014Z,96.92
2018-09-26T03:23:28.941Z,96.45
2018-09-26T03:24:28.883Z,97.21
2018-09-26T03:25:28.810Z,97.21
2018-09-26T03:26:28.744Z,97.12
2018-09-26T03:27:28.682Z,97.88
2018-09-26T03:28:28.613Z,97.21
2018-09-26T03:29:28.545Z,97.50
2018-09-26T03:30:28.479Z,97.02
2018-09-26T03:31:28.414Z,96.45
2018-09-26T03:32:28.350Z,96.55
2018-09-26T03:33:28.284Z,96.36
2018-09-26T03:34:28.214Z,96.55
2018-09-26T03:35:28.155Z,96.17
2018-09-26T03:36:28.079Z,96.31
2018-09-26T03:37:28.014Z,96.92
2018-09-26T03:38:27.959Z,97.16
2018-09-26T03:39:27.883Z,98.44
2018-09-26T03:40:27.822Z,99.96
2018-09-26T03:41:27.753Z,99.87
2018-09-26T03:42:27.687Z,99.49
2018-09-26T03:43:27.624Z,99.96
2018-09-26T03:44:27.561Z,99.58
2018-09-26T03:45:27.494Z,99.99
2018-09-26T03:46:27.425Z,99.99
2018-09-26T03:47:27.357Z,99.99
2018-09-26T03:48:27.291Z,99.99
2018-09-26T03:49:27.223Z,99.99
2018-09-26T03:50:27.160Z,99.82
2018-09-26T03:51:27.092Z,99.99
2018-09-26T03:52:27.031Z,99.99
2018-09-26T03:53:26.960Z,99.99
2018-09-26T03:54:26.897Z,99.99
2018-09-26T03:55:26.830Z,99.99
2018-09-26T03:56:26.764Z,99.99
2018-09-26T03:57:26.696Z,99.99
2018-09-26T03:58:26.631Z,99.99
2018-09-26T03:59:26.566Z,99.99
2018-09-26T04:00:26.512Z,99.99
2018-09-26T04:01:26.430Z,99.99
2018-09-26T04:02:26.366Z,99.99
2018-09-26T04:03:26.324Z,99.99
2018-09-26T04:04:26.239Z,99.99
2018-09-26T04:05:26.174Z,99.99
2018-09-26T04:06:26.120Z,99.99
2018-09-26T04:07:26.039Z,99.99
2018-09-26T04:08:25.972Z,99.99
2018-09-26T04:09:25.903Z,99.99
2018-09-26T04:10:25.837Z,99.99
2018-09-26T04:11:25.771Z,99.99
2018-09-26T04:12:25.715Z,99.99
2018-09-26T04:13:25.641Z,99.99
2018-09-26T04:14:25.574Z,99.99
2018-09-26T04:15:25.507Z,99.99
2018-09-26T04:16:25.440Z,99.99
2018-09-26T04:17:25.378Z,99.99
2018-09-26T04:18:25.309Z,99.99
2018-09-26T04:19:25.246Z,99.99
2018-09-26T04:20:25.200Z,99.99
2018-09-26T04:21:25.111Z,99.99
2018-09-26T04:22:25.042Z,99.99
2018-09-26T04:23:24.977Z,99.99
2018-09-26T04:24:24.918Z,99.99
2018-09-26T04:25:24.844Z,99.99
2018-09-26T04:26:24.856Z,99.99
2018-09-26T04:27:24.899Z,99.99
2018-09-26T04:28:24.650Z,99.99
2018-09-26T04:29:24.607Z,99.99
2018-09-26T04:30:24.543Z,99.99
2018-09-26T04:31:24.449Z,99.99
2018-09-26T04:32:24.403Z,99.99
2018-09-26T04:33:24.374Z,99.99
2018-09-26T04:34:24.250Z,99.99
2018-09-26T04:35:24.185Z,99.99
2018-09-26T04:36:24.121Z,99.99
2018-09-26T04:37:24.052Z,99.99
2018-09-26T04:38:23.996Z,99.99
2018-09-26T04:39:23.922Z,99.99
2018-09-26T04:40:23.865Z,99.99
2018-09-26T04:41:23.784Z,99.99
2018-09-26T04:42:23.722Z,99.99
2018-09-26T04:43:23.705Z,99.99
2018-09-26T04:44:23.590Z,99.99
2018-09-26T04:45:23.521Z,99.99
2018-09-26T04:46:23.461Z,99.99
2018-09-26T04:47:23.387Z,99.99
2018-09-26T04:48:23.323Z,99.99
2018-09-26T04:49:23.257Z,99.99
2018-09-26T04:50:23.189Z,99.99
2018-09-26T04:51:23.123Z,99.99
2018-09-26T04:52:23.058Z,99.99
2018-09-26T04:53:22.990Z,99.99
2018-09-26T04:54:22.929Z,99.99
2018-09-26T04:55:22.857Z,99.99
2018-09-26T04:56:22.792Z,99.99
2018-09-26T04:57:22.727Z,99.99
2018-09-26T04:58:22.722Z,99.99
2018-09-26T04:59:22.593Z,99.99
2018-09-26T05:00:22.535Z,99.99
2018-09-26T05:01:22.461Z,99.99
2018-09-26T05:02:22.415Z,99.99
2018-09-26T05:03:22.330Z,99.99
2018-09-26T05:04:22.267Z,99.99
2018-09-26T05:05:22.196Z,99.99
2018-09-26T05:06:22.130Z,99.99
2018-09-26T05:07:22.062Z,99.99
2018-09-26T05:08:22.051Z,99.99
2018-09-26T05:09:21.930Z,99.99
2018-09-26T05:10:21.864Z,99.99
2018-09-26T05:11:21.799Z,99.99
2018-09-26T05:12:21.731Z,99.99
2018-09-26T05:13:21.666Z,99.99
2018-09-26T05:14:21.597Z,99.99
2018-09-26T05:15:21.545Z,99.99
2018-09-26T05:16:21.465Z,99.99
2018-09-26T05:17:21.399Z,99.99
2018-09-26T05:18:21.334Z,99.99
2018-09-26T05:19:21.267Z,99.99
2018-09-26T05:20:21.201Z,99.99
2018-09-26T05:21:21.135Z,99.99
2018-09-26T05:22:21.075Z,99.99
2018-09-26T05:23:21.010Z,99.99
2018-09-26T05:24:20.937Z,99.99
2018-09-26T05:25:20.870Z,99.99
2018-09-26T05:26:20.802Z,99.99
2018-09-26T05:27:20.752Z,99.99
2018-09-26T05:28:20.671Z,99.99
2018-09-26T05:29:20.605Z,99.99
2018-09-26T05:30:20.549Z,99.99
2018-09-26T05:31:20.472Z,99.99
2018-09-26T05:32:20.412Z,99.99
2018-09-26T05:33:20.338Z,99.99
2018-09-26T05:34:20.273Z,99.99
2018-09-26T05:35:20.207Z,99.99
2018-09-26T05:36:20.142Z,99.99
2018-09-26T05:37:20.075Z,99.99
2018-09-26T05:38:20.007Z,99.99
2018-09-26T05:39:19.946Z,99.99
2018-09-26T05:40:19.876Z,99.99
2018-09-26T05:41:19.807Z,99.99
2018-09-26T05:42:19.743Z,99.99
2018-09-26T05:43:19.672Z,99.99
2018-09-26T05:44:19.613Z,99.99
2018-09-26T05:45:19.552Z,99.99
2018-09-26T05:46:19.477Z,99.99
2018-09-26T05:47:19.410Z,99.99
2018-09-26T05:48:19.346Z,99.99
2018-09-26T05:49:19.286Z,99.99
2018-09-26T05:50:19.259Z,99.99
2018-09-26T05:51:19.146Z,99.99
2018-09-26T05:52:19.079Z,99.99
2018-09-26T05:53:19.022Z,99.99
2018-09-26T05:54:18.950Z,99.99
2018-09-26T05:55:18.883Z,99.96
2018-09-26T05:56:18.817Z,99.99
2018-09-26T05:57:18.751Z,99.99
2018-09-26T05:58:18.684Z,99.99
2018-09-26T05:59:18.620Z,99.49
2018-09-26T06:00:18.554Z,99.49
2018-09-26T06:01:18.488Z,99.30
2018-09-26T06:02:18.426Z,99.87
2018-09-26T06:03:18.352Z,99.99
2018-09-26T06:04:18.290Z,99.99
2018-09-26T06:05:18.226Z,99.99
2018-09-26T06:06:18.156Z,99.58
2018-09-26T06:07:18.093Z,99.11
2018-09-26T06:08:18.027Z,98.87
2018-09-26T06:09:17.957Z,98.87
2018-09-26T06:10:17.890Z,99.26
2018-09-26T06:11:17.875Z,98.59
2018-09-26T06:12:17.758Z,97.64
2018-09-26T06:13:17.693Z,96.59
2018-09-26T06:14:17.626Z,96.50
2018-09-26T06:15:17.562Z,96.22
2018-09-26T06:16:17.495Z,97.64
2018-09-26T06:17:17.428Z,98.21
2018-09-26T06:18:17.364Z,97.45
2018-09-26T06:19:17.296Z,96.12
2018-09-26T06:20:17.232Z,96.59
2018-09-26T06:21:17.164Z,96.78
2018-09-26T06:22:17.100Z,97.26
2018-09-26T06:23:17.032Z,96.59
2018-09-26T06:24:16.965Z,95.36
2018-09-26T06:25:16.903Z,96.69
2018-09-26T06:26:16.845Z,96.88
2018-09-26T06:27:16.769Z,96.50
2018-09-26T06:28:16.702Z,96.22
2018-09-26T06:29:16.632Z,96.41
2018-09-26T06:30:16.573Z,95.84
2018-09-26T06:31:16.504Z,95.65
2018-09-26T06:32:16.442Z,96.22
2018-09-26T06:33:16.376Z,96.50
2018-09-26T06:34:16.313Z,96.64
2018-09-26T06:35:16.244Z,96.59
2018-09-26T06:36:16.173Z,96.17
2018-09-26T06:37:16.108Z,94.84
2018-09-26T06:38:16.045Z,94.79
2018-09-26T06:39:15.981Z,94.84
2018-09-26T06:40:15.922Z,95.60
2018-09-26T06:41:15.844Z,96.08
2018-09-26T06:42:15.778Z,94.93
2018-09-26T06:43:15.718Z,95.12
2018-09-26T06:44:15.647Z,95.60
2018-09-26T06:45:15.583Z,94.56
2018-09-26T06:46:15.511Z,94.46
2018-09-26T06:47:15.450Z,94.65
2018-09-26T06:48:15.384Z,94.27
2018-09-26T06:49:15.317Z,94.70
2018-09-26T06:50:15.303Z,94.23
2018-09-26T06:51:15.186Z,94.13
2018-09-26T06:52:15.123Z,93.27
2018-09-26T06:53:15.054Z,93.08
2018-09-26T06:54:14.991Z,93.08
2018-09-26T06:55:14.923Z,92.80
2018-09-26T06:56:14.859Z,93.65
2018-09-26T06:57:14.794Z,93.56
2018-09-26T06:58:14.725Z,94.23
2018-09-26T06:59:14.661Z,93.75
2018-09-26T07:00:14.608Z,94.42
2018-09-26T07:01:14.530Z,93.84
2018-09-26T07:02:14.468Z,94.70
2018-09-26T07:03:14.401Z,94.42
2018-09-26T07:04:14.336Z,93.84
2018-09-26T07:05:14.268Z,93.37
2018-09-26T07:06:14.205Z,93.65
2018-09-26T07:07:14.138Z,93.46
2018-09-26T07:08:14.075Z,92.99
2018-09-26T07:09:14.010Z,92.23
2018-09-26T07:10:13.950Z,92.13
2018-09-26T07:11:13.880Z,92.71
2018-09-26T07:12:13.852Z,92.04
2018-09-26T07:13:13.746Z,92.90
2018-09-26T07:14:13.677Z,92.71
2018-09-26T07:15:13.615Z,92.99
2018-09-26T07:16:13.551Z,92.42
2018-09-26T07:17:13.485Z,92.42
2018-09-26T07:18:13.419Z,92.46
2018-09-26T07:19:13.354Z,91.52
2018-09-26T07:20:13.297Z,91.23
2018-09-26T07:21:13.226Z,91.99
2018-09-26T07:22:13.161Z,91.61
2018-09-26T07:23:13.096Z,91.04
2018-09-26T07:24:13.032Z,90.94
2018-09-26T07:25:12.965Z,90.85
2018-09-26T07:26:12.900Z,90.56
2018-09-26T07:27:12.838Z,90.37
2018-09-26T07:28:12.775Z,90.19
2018-09-26T07:29:12.708Z,90.19
2018-09-26T07:30:12.637Z,90.00
2018-09-26T07:31:12.573Z,90.33
2018-09-26T07:32:12.578Z,90.33
2018-09-26T07:33:12.443Z,89.42
2018-09-26T07:34:12.378Z,89.04
2018-09-26T07:35:12.315Z,88.04
2018-09-26T07:36:12.252Z,88.80
2018-09-26T07:37:12.186Z,88.71
2018-09-26T07:38:12.119Z,88.33
2018-09-26T07:39:12.054Z,88.13
2018-09-26T07:40:11.999Z,88.80
2018-09-26T07:41:11.924Z,89.37
2018-09-26T07:42:11.868Z,89.18
2018-09-26T07:43:11.797Z,89.56
2018-09-26T07:44:11.744Z,89.18
2018-09-26T07:45:11.706Z,88.04
2018-09-26T07:46:11.605Z,87.19
2018-09-26T07:47:11.535Z,86.90
2018-09-26T07:48:11.469Z,87.38
2018-09-26T07:49:11.407Z,87.66
2018-09-26T07:50:11.340Z,87.13
2018-09-26T07:51:11.278Z,86.94
2018-09-26T07:52:11.213Z,86.57
2018-09-26T07:53:11.156Z,87.42
2018-09-26T07:54:11.080Z,86.94
2018-09-26T07:55:11.019Z,86.57
2018-09-26T07:56:10.960Z,86.38
2018-09-26T07:57:10.890Z,87.32
2018-09-26T07:58:10.828Z,86.18
2018-09-26T07:59:10.916Z,84.38
2018-09-26T08:00:10.695Z,84.33
2018-09-26T08:01:10.631Z,84.52
2018-09-26T08:02:10.565Z,84.33
2018-09-26T08:03:10.506Z,83.28
2018-09-26T08:04:10.449Z,83.37
2018-09-26T08:05:10.372Z,83.75
2018-09-26T08:06:10.308Z,84.23
2018-09-26T08:07:10.248Z,83.85
2018-09-26T08:08:10.181Z,82.70
2018-09-26T08:09:10.119Z,81.95
2018-09-26T08:10:10.054Z,81.56
2018-09-26T08:11:10.042Z,81.37
2018-09-26T08:12:09.925Z,81.47
2018-09-26T08:13:09.859Z,80.75
2018-09-26T08:14:09.796Z,80.18
2018-09-26T08:15:09.733Z,80.94
2018-09-26T08:16:09.668Z,80.46
2018-09-26T08:17:09.601Z,81.23
2018-09-26T08:18:09.567Z,81.51
2018-09-26T08:19:09.480Z,81.13
2018-09-26T08:20:09.412Z,81.32
2018-09-26T08:21:09.347Z,81.23
2018-09-26T08:22:09.283Z,81.41
2018-09-26T08:23:09.221Z,80.36
2018-09-26T08:24:09.286Z,81.32
2018-09-26T08:25:09.087Z,80.75
2018-09-26T08:26:09.036Z,80.55
2018-09-26T08:27:08.963Z,80.27
2018-09-26T08:28:08.900Z,79.89
2018-09-26T08:29:08.834Z,79.99
2018-09-26T08:30:08.785Z,80.36
2018-09-26T08:31:08.706Z,79.80
2018-09-26T08:32:08.649Z,80.36
2018-09-26T08:33:08.579Z,80.46
2018-09-26T08:34:08.511Z,80.84
2018-09-26T08:35:08.450Z,80.55
2018-09-26T08:36:08.398Z,80.65
2018-09-26T08:37:08.323Z,80.08
2018-09-26T08:38:08.262Z,79.80
2018-09-26T08:39:08.198Z,79.74
2018-09-26T08:40:08.134Z,79.99
2018-09-26T08:41:08.068Z,79.74
2018-09-26T08:42:08.005Z,78.98
2018-09-26T08:43:07.946Z,79.64
2018-09-26T08:44:07.880Z,78.03
2018-09-26T08:45:07.813Z,77.93
2018-09-26T08:46:07.750Z,78.06
2018-09-26T08:47:07.688Z,77.69
2018-09-26T08:48:07.624Z,77.11
2018-09-26T08:49:07.559Z,77.69
2018-09-26T08:50:07.499Z,77.01
2018-09-26T08:51:07.432Z,75.78
2018-09-26T08:52:07.369Z,75.40
2018-09-26T08:53:07.308Z,76.16
2018-09-26T08:54:07.242Z,75.01
2018-09-26T08:55:07.181Z,75.34
2018-09-26T08:56:07.115Z,75.15
2018-09-26T08:57:07.053Z,75.15
2018-09-26T08:58:06.991Z,76.20
2018-09-26T08:59:06.925Z,75.05
2018-09-26T09:00:06.863Z,74.29
2018-09-26T09:01:06.795Z,74.67
2018-09-26T09:02:06.739Z,74.86
2018-09-26T09:03:06.671Z,74.96
2018-09-26T09:04:06.608Z,74.77
2018-09-26T09:05:06.544Z,74.96
2018-09-26T09:06:06.524Z,75.24
2018-09-26T09:07:06.418Z,74.67
2018-09-26T09:08:06.359Z,74.29
2018-09-26T09:09:06.292Z,74.77
2018-09-26T09:10:06.228Z,73.52
2018-09-26T09:11:06.168Z,73.52
2018-09-26T09:12:06.102Z,73.81
2018-09-26T09:13:06.039Z,74.38
2018-09-26T09:14:05.978Z,74.01
2018-09-26T09:15:05.913Z,73.24
2018-09-26T09:16:05.849Z,72.09
2018-09-26T09:17:05.801Z,72.38
2018-09-26T09:18:05.734Z,73.47
2018-09-26T09:19:05.687Z,72.32
2018-09-26T09:20:05.624Z,70.89
2018-09-26T09:21:05.537Z,70.70
2018-09-26T09:22:05.472Z,71.46
2018-09-26T09:23:05.409Z,72.03
2018-09-26T09:24:05.346Z,71.18
2018-09-26T09:25:05.282Z,72.32
2018-09-26T09:26:05.259Z,71.46
2018-09-26T09:27:05.186Z,72.36
2018-09-26T09:28:05.101Z,71.98
2018-09-26T09:29:05.030Z,72.55
2018-09-26T09:30:04.969Z,71.41
2018-09-26T09:31:04.905Z,70.83
2018-09-26T09:32:04.866Z,72.36
2018-09-26T09:33:04.780Z,71.02
2018-09-26T09:34:04.719Z,71.98
2018-09-26T09:35:04.653Z,71.88
2018-09-26T09:36:04.588Z,71.69
2018-09-26T09:37:04.531Z,71.84
2018-09-26T09:38:04.487Z,72.13
2018-09-26T09:39:04.412Z,70.89
2018-09-26T09:40:04.346Z,72.13
2018-09-26T09:41:04.277Z,72.03
2018-09-26T09:42:04.216Z,72.51
2018-09-26T09:43:04.152Z,73.28
2018-09-26T09:44:04.119Z,73.85
2018-09-26T09:45:04.027Z,73.28
2018-09-26T09:46:03.965Z,71.94
2018-09-26T09:47:03.898Z,71.75
2018-09-26T09:48:03.841Z,71.94
2018-09-26T09:49:03.776Z,71.75
2018-09-26T09:50:03.715Z,71.94
2018-09-26T09:51:03.653Z,72.23
2018-09-26T09:52:03.590Z,73.18
2018-09-26T09:53:03.528Z,72.51
2018-09-26T09:54:03.463Z,72.13
2018-09-26T09:55:03.401Z,71.84
2018-09-26T09:56:03.336Z,71.88
2018-09-26T09:57:03.276Z,71.98
2018-09-26T09:58:03.219Z,71.31
2018-09-26T09:59:03.145Z,71.98
2018-09-26T10:00:03.089Z,70.83
2018-09-26T10:01:03.026Z,70.16
2018-09-26T10:02:02.963Z,70.36
2018-09-26T10:03:03.028Z,70.64
2018-09-26T10:04:02.837Z,69.91
2018-09-26T10:05:02.775Z,70.58
2018-09-26T10:06:02.714Z,70.54
2018-09-26T10:07:02.651Z,69.82
2018-09-26T10:08:02.596Z,68.92
2018-09-26T10:09:02.527Z,68.67
2018-09-26T10:10:02.467Z,68.76
2018-09-26T10:11:02.402Z,68.57
2018-09-26T10:12:02.338Z,67.71
2018-09-26T10:13:02.275Z,67.24
2018-09-26T10:14:02.213Z,66.76
2018-09-26T10:15:02.157Z,65.93
2018-09-26T10:16:02.091Z,65.55
2018-09-26T10:17:02.027Z,65.84
2018-09-26T10:18:01.971Z,65.64
2018-09-26T10:19:01.902Z,66.31
2018-09-26T10:20:01.842Z,65.36
2018-09-26T10:21:01.778Z,64.50
2018-09-26T10:22:01.715Z,64.05
2018-09-26T10:23:01.655Z,64.34
2018-09-26T10:24:01.594Z,63.76
2018-09-26T10:25:01.578Z,65.30
2018-09-26T10:26:01.470Z,64.43
2018-09-26T10:27:01.409Z,63.86
2018-09-26T10:28:01.346Z,64.34
2018-09-26T10:29:01.292Z,63.10
2018-09-26T10:30:01.221Z,62.33
2018-09-26T10:31:01.160Z,61.19
2018-09-26T10:32:02.381Z,61.22
2018-09-26T10:33:01.036Z,60.45
2018-09-26T10:34:00.974Z,61.12
2018-09-26T10:35:00.921Z,60.35
2018-09-26T10:36:00.850Z,61.31
2018-09-26T10:37:00.789Z,60.74
2018-09-26T10:38:00.727Z,60.64
2018-09-26T10:39:00.665Z,60.83
2018-09-26T10:40:00.606Z,61.02
2018-09-26T10:41:00.618Z,60.86
2018-09-26T10:42:00.479Z,60.67
2018-09-26T10:43:00.419Z,60.55
2018-09-26T10:44:00.357Z,60.38
2018-09-26T10:45:00.294Z,60.67
2018-09-26T10:46:00.231Z,60.77
2018-09-26T10:47:00.171Z,60.58
2018-09-26T10:48:00.109Z,58.95
2018-09-26T10:49:00.050Z,58.95
2018-09-26T10:49:59.986Z,60.00
2018-09-26T10:50:59.930Z,60.16
2018-09-26T10:51:59.864Z,60.77
2018-09-26T10:52:59.805Z,61.05
2018-09-26T10:53:59.743Z,60.64
2018-09-26T10:54:59.685Z,60.93
2018-09-26T10:55:59.620Z,61.69
2018-09-26T10:56:59.560Z,60.64
2018-09-26T10:57:59.497Z,59.69
2018-09-26T10:58:59.436Z,60.55
2018-09-26T10:59:59.373Z,60.83
2018-09-26T11:00:59.313Z,61.12
2018-09-26T11:01:59.299Z,60.35
2018-09-26T11:02:59.190Z,59.69
2018-09-26T11:03:59.128Z,61.02
2018-09-26T11:04:59.064Z,61.31
2018-09-26T11:05:59.001Z,61.31
2018-09-26T11:06:58.945Z,61.88
2018-09-26T11:07:58.884Z,60.83
2018-09-26T11:08:58.821Z,60.74
2018-09-26T11:09:58.761Z,61.02
2018-09-26T11:10:58.699Z,61.44
2018-09-26T11:11:58.636Z,61.91
2018-09-26T11:12:58.605Z,60.96
2018-09-26T11:13:58.515Z,60.96
2018-09-26T11:14:58.453Z,61.91
2018-09-26T11:15:58.394Z,62.01
2018-09-26T11:16:58.329Z,61.22
2018-09-26T11:17:58.270Z,61.60
2018-09-26T11:18:58.285Z,61.91
2018-09-26T11:19:58.146Z,62.40
2018-09-26T11:20:58.085Z,61.34
2018-09-26T11:21:58.023Z,61.15
2018-09-26T11:22:57.963Z,59.91
2018-09-26T11:23:57.899Z,60.38
2018-09-26T11:24:57.839Z,60.77
2018-09-26T11:25:57.780Z,60.80
2018-09-26T11:26:57.718Z,60.89
2018-09-26T11:27:57.657Z,60.32
2018-09-26T11:28:57.597Z,59.84
2018-09-26T11:29:57.539Z,61.15
2018-09-26T11:30:57.473Z,61.34
2018-09-26T11:31:57.411Z,61.63
2018-09-26T11:32:57.380Z,60.67
2018-09-26T11:33:57.290Z,60.77
2018-09-26T11:34:57.233Z,61.63
2018-09-26T11:35:57.169Z,61.05
2018-09-26T11:36:57.102Z,61.63
2018-09-26T11:37:57.043Z,61.54
2018-09-26T11:38:56.983Z,61.34
2018-09-26T11:39:56.920Z,61.05
2018-09-26T11:40:56.857Z,59.91
2018-09-26T11:41:56.800Z,59.52
2018-09-26T11:42:56.739Z,59.94
2018-09-26T11:43:56.676Z,60.51
2018-09-26T11:44:56.612Z,61.25
2018-09-26T11:45:56.553Z,59.45
2018-09-26T11:46:56.488Z,59.05
2018-09-26T11:47:56.431Z,57.45
2018-09-26T11:48:56.366Z,57.45
2018-09-26T11:49:56.308Z,57.54
2018-09-26T11:50:56.245Z,58.50
2018-09-26T11:51:56.185Z,57.54
2018-09-26T11:52:56.123Z,58.59
2018-09-26T11:53:56.060Z,57.26
2018-09-26T11:54:55.998Z,57.45
2018-09-26T11:55:55.986Z,58.31
2018-09-26T11:56:55.877Z,58.59
2018-09-26T11:57:55.814Z,59.81
2018-09-26T11:58:55.754Z,59.65
2018-09-26T11:59:55.693Z,58.95
2018-09-26T12:00:55.637Z,59.52
2018-09-26T12:01:55.569Z,60.38
2018-09-26T12:02:55.509Z,61.05
2018-09-26T12:03:55.447Z,60.67
2018-09-26T12:04:55.385Z,61.44
2018-09-26T12:05:55.328Z,61.44
2018-09-26T12:06:55.287Z,62.20
2018-09-26T12:07:55.205Z,61.34
2018-09-26T12:08:55.141Z,60.96
2018-09-26T12:09:55.080Z,60.58
2018-09-26T12:10:55.019Z,60.51
2018-09-26T12:11:54.982Z,60.51
2018-09-26T12:12:54.896Z,61.08
2018-09-26T12:13:54.839Z,61.37
2018-09-26T12:14:54.773Z,61.47
2018-09-26T12:15:54.710Z,61.66
2018-09-26T12:16:54.649Z,62.62
2018-09-26T12:17:54.590Z,61.66
2018-09-26T12:18:54.529Z,61.57
2018-09-26T12:19:54.466Z,60.51
2018-09-26T12:20:54.403Z,61.66
2018-09-26T12:21:54.347Z,61.47
2018-09-26T12:22:54.282Z,60.51
2018-09-26T12:23:54.222Z,60.99
2018-09-26T12:24:54.160Z,61.47
2018-09-26T12:25:54.098Z,60.99
2018-09-26T12:26:54.040Z,60.13
2018-09-26T12:27:54.042Z,58.79
2018-09-26T12:28:53.917Z,59.75
2018-09-26T12:29:53.853Z,59.84
2018-09-26T12:30:53.813Z,61.08
2018-09-26T12:31:53.731Z,60.41
2018-09-26T12:32:53.668Z,60.70
2018-09-26T12:33:53.612Z,59.45
2018-09-26T12:34:53.579Z,58.72
2018-09-26T12:35:53.487Z,59.01
2018-09-26T12:36:53.420Z,58.62
2018-09-26T12:37:53.362Z,58.81
2018-09-26T12:38:53.298Z,59.58
2018-09-26T12:39:53.241Z,60.25
2018-09-26T12:40:53.178Z,59.87
2018-09-26T12:41:53.118Z,57.38
2018-09-26T12:42:53.134Z,58.34
2018-09-26T12:43:52.997Z,59.11
2018-09-26T12:44:52.935Z,59.87
2018-09-26T12:45:52.873Z,57.67
2018-09-26T12:46:52.811Z,56.81
2018-09-26T12:47:52.771Z,56.61
2018-09-26T12:48:52.689Z,56.42
2018-09-26T12:49:52.624Z,56.42
2018-09-26T12:50:52.567Z,56.32
2018-09-26T12:51:52.516Z,57.38